Time;durP1;ratioP1;P1;durP2;ratioP2;P2;SDS_P1;SDS_P2;PMS_P1;PMS_P2;Temp;Humidity;BMP_temperature;BMP_pressure;BME280_temperature;BME280_humidity;BME280_pressure;Samples;Min_cycle;Max_cycle;Signal;HPM_P1;HPM_P2
2022/07/05 00:02:15;;;;;;;0.75;0.68;;;24.40;84.20;;;-143.79;100.00;62634.88;4995635;28;20110;-58
2022/07/05 00:04:41;;;;;;;1.35;0.70;;;24.00;83.90;;;-143.79;100.00;62634.88;4995799;28;20041;-58
2022/07/05 00:07:19;;;;;;;1.70;0.93;;;23.90;83.70;;;-143.79;100.00;62634.88;4995656;28;20077;-59
2022/07/05 00:09:54;;;;;;;0.73;0.60;;;24.10;83.80;;;-143.79;100.00;62634.88;4995609;28;20513;-59
2022/07/05 00:12:27;;;;;;;1.58;0.63;;;24.10;52.40;;;-143.79;100.00;62634.88;4995724;28;20034;-58
2022/07/05 00:14:53;;;;;;;0.70;0.70;;;24.20;84.00;;;-143.79;100.00;62634.88;4995832;28;20096;-58
2022/07/05 00:17:19;;;;;;;2.75;0.60;;;23.80;83.60;;;-143.79;100.00;62634.88;4995502;28;20039;-58
2022/07/05 00:19:45;;;;;;;1.92;0.70;;;23.70;52.20;;;-143.79;100.00;62634.88;4995318;28;20033;-58
2022/07/05 00:22:12;;;;;;;1.92;0.65;;;;;;;-143.79;100.00;62634.88;4995416;28;20045;-58
2022/07/05 00:24:38;;;;;;;0.80;0.60;;;;;;;-143.79;100.00;62634.88;4995178;28;20042;-58
2022/07/05 00:27:04;;;;;;;1.17;0.70;;;24.20;84.10;;;-143.79;100.00;62634.88;4995393;28;20022;-58
2022/07/05 00:29:30;;;;;;;0.88;0.68;;;24.00;83.90;;;-143.79;100.00;62634.88;4995471;28;20121;-58
2022/07/05 00:31:55;;;;;;;1.42;0.50;;;24.00;83.80;;;-143.79;100.00;62634.88;4995262;28;20053;-58
2022/07/05 00:34:21;;;;;;;1.58;0.75;;;23.90;84.10;;;-143.79;100.00;62634.88;4995506;28;20050;-57
2022/07/05 00:36:47;;;;;;;0.95;0.60;;;24.10;84.00;;;-143.79;100.00;62634.88;4995457;28;20030;-57
2022/07/05 00:39:14;;;;;;;1.08;0.63;;;;;;;-143.79;100.00;62634.88;4994393;28;20439;-56
2022/07/05 00:41:40;;;;;;;0.70;0.55;;;24.10;84.00;;;-143.79;100.00;62634.88;4995284;28;20023;-58
2022/07/05 00:44:10;;;;;;;0.70;0.60;;;23.70;83.90;;;-143.79;100.00;62634.88;4995084;28;20038;-58
2022/07/05 00:46:37;;;;;;;0.88;0.60;;;23.90;83.80;;;-143.79;100.00;62634.88;4994983;28;20485;-58
2022/07/05 00:49:05;;;;;;;2.15;0.70;;;23.60;57.20;;;-143.79;100.00;62634.88;4994967;28;20070;-57
2022/07/05 00:51:34;;;;;;;1.35;0.60;;;24.10;84.00;;;-143.79;100.00;62634.88;4995081;28;20046;-58
2022/07/05 00:54:01;;;;;;;1.83;0.60;;;24.20;56.70;;;-143.79;100.00;62634.88;4994910;28;20113;-58
2022/07/05 00:56:27;;;;;;;1.15;0.63;;;24.10;52.90;;;-143.79;100.00;62634.88;4994864;28;20038;-57
2022/07/05 00:58:54;;;;;;;1.15;0.50;;;24.10;84.40;;;-143.79;100.00;62634.88;4994916;28;20031;-58
2022/07/05 01:01:20;;;;;;;0.55;0.50;;;24.00;84.10;;;-143.79;100.00;62634.88;4994777;28;20445;-58
2022/07/05 01:03:46;;;;;;;1.60;0.70;;;24.10;83.90;;;-143.79;100.00;62634.88;4994536;28;20452;-58
2022/07/05 01:06:13;;;;;;;2.05;0.70;;;24.00;55.80;;;-143.79;100.00;62634.88;4994713;28;20134;-58
2022/07/05 01:08:42;;;;;;;0.95;0.70;;;23.60;83.20;;;-143.79;100.00;62634.88;4994553;28;20497;-57
2022/07/05 01:11:09;;;;;;;0.73;0.60;;;24.00;84.20;;;-143.79;100.00;62634.88;4994632;28;20042;-57
2022/07/05 01:13:37;;;;;;;0.50;0.50;;;24.00;84.20;;;-143.79;100.00;62634.88;4994636;28;20121;-58
2022/07/05 01:16:03;;;;;;;1.20;0.50;;;23.60;83.80;;;-143.79;100.00;62634.88;4994746;28;20484;-58
2022/07/05 01:18:31;;;;;;;0.75;0.60;;;24.10;84.40;;;-143.79;100.00;62634.88;4994646;28;20093;-58
2022/07/05 01:20:58;;;;;;;0.88;0.70;;;24.10;84.20;;;-143.79;100.00;62634.88;4993439;28;20038;-58
2022/07/05 01:23:27;;;;;;;1.90;0.90;;;23.90;83.90;;;-143.79;100.00;62634.88;4994436;28;20030;-58
2022/07/05 01:25:54;;;;;;;1.23;0.70;;;24.10;84.00;;;-143.79;100.00;62634.88;4994246;28;20058;-58
2022/07/05 01:28:21;;;;;;;0.52;0.52;;;24.00;53.10;;;-143.79;100.00;62634.88;4993013;28;20572;-57
2022/07/05 01:30:47;;;;;;;1.15;0.63;;;24.00;84.30;;;-143.79;100.00;62634.88;4994564;28;20057;-58
2022/07/05 01:33:14;;;;;;;0.80;0.57;;;;;;;-143.79;100.00;62634.88;4994181;28;20038;-58
2022/07/05 01:35:40;;;;;;;1.13;0.68;;;23.70;73.20;;;-143.79;100.00;62634.88;4994156;28;20045;-58
2022/07/05 01:38:05;;;;;;;1.13;0.70;;;24.10;84.40;;;-143.79;100.00;62634.88;4994041;28;20038;-58
2022/07/05 01:40:31;;;;;;;0.50;0.50;;;24.10;84.30;;;-143.79;100.00;62634.88;4992861;28;20089;-58
2022/07/05 01:42:57;;;;;;;0.88;0.40;;;24.10;63.00;;;-143.79;100.00;62634.88;4993890;28;20031;-58
2022/07/05 01:48:16;;;;;;;0.93;0.77;;;24.10;84.60;;;-143.79;100.00;62634.88;4993781;28;20053;-58
2022/07/05 01:50:53;;;;;;;1.73;0.80;;;24.00;84.40;;;-143.79;100.00;62634.88;4993833;28;20038;-58
2022/07/05 01:53:29;;;;;;;1.15;0.63;;;23.50;84.00;;;-143.79;100.00;62634.88;4994058;28;20438;-58
2022/07/05 01:56:00;;;;;;;1.40;0.80;;;24.10;84.40;;;-143.79;100.00;62634.88;4993746;28;20043;-58
2022/07/05 01:58:26;;;;;;;1.30;0.80;;;23.90;84.50;;;-143.79;100.00;62634.88;4993676;28;20038;-56
2022/07/05 02:00:55;;;;;;;1.40;0.77;;;24.20;84.40;;;-143.79;100.00;62634.88;4993663;28;20026;-58
2022/07/05 02:03:21;;;;;;;0.75;0.63;;;23.80;84.40;;;-143.79;100.00;62634.88;4993433;28;20417;-58
2022/07/05 02:05:48;;;;;;;0.90;0.52;;;23.50;84.20;;;-143.79;100.00;62634.88;4993673;28;20513;-58
2022/07/05 02:08:16;;;;;;;1.13;0.63;;;23.90;53.60;;;-143.79;100.00;62634.88;4993649;28;20050;-58
2022/07/05 02:10:43;;;;;;;1.05;0.70;;;23.40;84.10;;;-143.79;100.00;62634.88;4993466;28;20367;-57
2022/07/05 02:13:10;;;;;;;0.63;0.50;;;23.70;84.20;;;-143.79;100.00;62634.88;4993416;28;20065;-58
2022/07/05 02:15:38;;;;;;;1.42;0.90;;;23.70;84.20;;;-143.79;100.00;62634.88;4993451;28;20034;-58
2022/07/05 02:18:05;;;;;;;1.05;0.80;;;23.70;53.70;;;-143.79;100.00;62634.88;4993582;28;20100;-58
2022/07/05 02:20:32;;;;;;;2.17;0.50;;;23.70;84.30;;;-143.79;100.00;62634.88;4993380;28;20038;-58
2022/07/05 02:22:59;;;;;;;1.35;0.93;;;23.30;84.20;;;-143.79;100.00;62634.88;4993285;28;20056;-58
2022/07/05 02:25:25;;;;;;;0.75;0.60;;;23.80;84.80;;;-143.79;100.00;62634.88;4993317;28;20030;-58
2022/07/05 02:27:52;;;;;;;1.05;0.73;;;23.70;84.70;;;-143.79;100.00;62634.88;4993158;28;20034;-58
2022/07/05 02:30:18;;;;;;;1.13;0.90;;;;;;;-143.79;100.00;62634.88;4993167;28;20042;-58
2022/07/05 02:32:45;;;;;;;1.02;0.88;;;23.90;85.00;;;-143.79;100.00;62634.88;4993163;28;20123;-58
2022/07/05 02:35:11;;;;;;;1.00;0.95;;;23.80;82.50;;;-143.79;100.00;62634.88;4993146;28;20065;-58
2022/07/05 02:37:41;;;;;;;2.58;0.82;;;23.70;84.80;;;-143.79;100.00;62634.88;4993109;28;20030;-58
2022/07/05 02:40:10;;;;;;;1.50;0.90;;;23.90;84.60;;;-143.79;100.00;62634.88;4991912;28;20034;-58
2022/07/05 02:42:36;;;;;;;1.10;0.90;;;23.90;84.50;;;-143.79;100.00;62634.88;4993036;28;20920;-57
2022/07/05 02:45:03;;;;;;;1.15;0.82;;;23.90;67.80;;;-143.79;100.00;62634.88;4993042;28;20102;-58
2022/07/05 02:47:30;;;;;;;1.10;0.95;;;23.40;73.00;;;-143.79;100.00;62634.88;4993158;28;20030;-58
2022/07/05 02:49:58;;;;;;;1.55;0.65;;;23.80;85.10;;;-143.79;100.00;62634.88;4992914;28;20039;-57
2022/07/05 02:52:25;;;;;;;0.60;0.60;;;;;;;-143.79;100.00;62634.88;4992809;28;20030;-58
2022/07/05 02:54:51;;;;;;;1.30;0.77;;;23.80;84.90;;;-143.79;100.00;62634.88;4992868;28;20031;-58
2022/07/05 02:57:16;;;;;;;0.95;0.85;;;23.90;85.10;;;-143.79;100.00;62634.88;4993088;28;20045;-59
2022/07/05 02:59:42;;;;;;;1.10;1.00;;;23.80;85.20;;;-143.79;100.00;62634.88;4992894;28;20477;-58
2022/07/05 03:02:08;;;;;;;0.82;0.82;;;;;;;-143.79;100.00;62634.88;4992555;28;20508;-58
2022/07/05 03:04:34;;;;;;;0.70;0.65;;;23.90;85.30;;;-143.79;100.00;62634.88;4992748;28;20038;-58
2022/07/05 03:06:59;;;;;;;0.98;0.70;;;24.00;85.70;;;-143.79;100.00;62634.88;4992798;28;20555;-57
2022/07/05 03:09:25;;;;;;;0.70;0.68;;;23.80;85.40;;;-143.79;100.00;62634.88;4992622;28;20042;-56
2022/07/05 03:11:51;;;;;;;0.68;0.68;;;23.40;85.70;;;-143.79;100.00;62634.88;4992733;28;20089;-58
2022/07/05 03:14:17;;;;;;;1.05;0.88;;;24.00;86.10;;;-143.79;100.00;62634.88;4993239;28;20109;-57
2022/07/05 03:16:44;;;;;;;1.23;0.88;;;24.00;81.40;;;-143.79;100.00;62634.88;4992716;28;20465;-57
2022/07/05 03:19:10;;;;;;;1.38;0.93;;;;;;;-143.79;100.00;62634.88;4992678;28;20073;-59
2022/07/05 03:21:36;;;;;;;1.20;1.02;;;;;;;-143.79;100.00;62634.88;4991761;28;20460;-59
2022/07/05 03:24:02;;;;;;;0.82;0.70;;;24.00;62.20;;;-143.79;100.00;62634.88;4992571;28;20044;-59
2022/07/05 03:26:28;;;;;;;0.80;0.80;;;;;;;-143.79;100.00;62634.88;4992749;28;20101;-59
2022/07/05 03:28:54;;;;;;;2.50;0.85;;;23.70;75.10;;;-143.79;100.00;62634.88;4992767;28;20114;-59
2022/07/05 03:31:20;;;;;;;1.20;0.98;;;;;;;-143.79;100.00;62634.88;4992768;28;20505;-59
2022/07/05 03:33:46;;;;;;;1.35;1.10;;;;;;;-143.79;100.00;62634.88;4992402;28;20038;-57
2022/07/05 03:36:12;;;;;;;1.00;0.90;;;23.90;68.90;;;-143.79;100.00;62634.88;4992515;28;20129;-58
2022/07/05 03:38:38;;;;;;;0.95;0.70;;;;;;;-143.79;100.00;62634.88;4992567;28;20142;-57
2022/07/05 03:41:04;;;;;;;1.00;0.70;;;;;;;-143.79;100.00;62634.88;4992485;28;20096;-58
2022/07/05 03:43:30;;;;;;;1.58;0.90;;;23.90;71.20;;;-143.79;100.00;62634.88;4992444;28;20117;-57
2022/07/05 03:45:56;;;;;;;0.73;0.73;;;;;;;-143.79;100.00;62634.88;4992473;28;20066;-56
2022/07/05 03:48:22;;;;;;;0.70;0.68;;;;;;;-143.79;100.00;62634.88;4992330;28;20034;-58
2022/07/05 03:50:48;;;;;;;1.40;1.05;;;23.60;67.00;;;-143.79;100.00;62634.88;4992370;28;20030;-57
2022/07/05 03:53:15;;;;;;;1.13;0.80;;;;;;;-143.79;100.00;62634.88;4992354;28;20516;-58
2022/07/05 03:55:41;;;;;;;0.90;0.80;;;23.60;86.10;;;-143.79;100.00;62634.88;4992565;28;20038;-58
2022/07/05 03:58:06;;;;;;;2.25;0.90;;;23.40;85.80;;;-143.79;100.00;62634.88;4992607;28;20109;-57
2022/07/05 04:00:33;;;;;;;0.80;0.77;;;23.80;84.10;;;-143.79;100.00;62634.88;4992443;28;20093;-57
2022/07/05 04:02:59;;;;;;;0.82;0.82;;;23.60;86.20;;;-143.79;100.00;62634.88;4992058;28;20492;-57
2022/07/05 04:05:25;;;;;;;0.90;0.68;;;23.70;86.20;;;-143.79;100.00;62634.88;4992449;28;20096;-56
2022/07/05 04:07:55;;;;;;;0.68;0.68;;;23.90;86.40;;;-143.79;100.00;62634.88;4992048;28;20027;-57
2022/07/05 04:10:23;;;;;;;1.08;0.90;;;23.80;86.10;;;-143.79;100.00;62634.88;4992159;28;20030;-57
2022/07/05 04:12:49;;;;;;;0.88;0.85;;;24.00;86.20;;;-143.79;100.00;62634.88;4992399;28;20034;-57
2022/07/05 04:15:15;;;;;;;1.27;0.80;;;23.70;86.10;;;-143.79;100.00;62634.88;4995119;28;20042;-58
2022/07/05 04:17:53;;;;;;;3.90;1.27;;;23.90;86.00;;;-143.79;100.00;62634.88;4995805;28;20042;-58
2022/07/05 04:20:21;;;;;;;1.30;0.90;;;23.90;86.10;;;-143.79;100.00;62634.88;4995760;28;20492;-58
2022/07/05 04:22:48;;;;;;;0.75;0.70;;;23.40;85.70;;;-143.79;100.00;62634.88;4995490;28;20113;-57
2022/07/05 04:25:17;;;;;;;1.60;1.30;;;23.80;86.10;;;-143.79;100.00;62634.88;4994310;28;20030;-57
2022/07/05 04:27:52;;;;;;;1.67;0.80;;;23.60;86.50;;;-143.79;100.00;62634.88;4995588;28;20026;-57
2022/07/05 04:30:20;;;;;;;1.45;1.15;;;23.80;86.60;;;-143.79;100.00;62634.88;4994168;28;20113;-58
2022/07/05 04:32:45;;;;;;;1.15;1.00;;;23.90;86.20;;;-143.79;100.00;62634.88;4995308;28;20042;-57
2022/07/05 04:35:12;;;;;;;1.67;0.80;;;23.90;86.80;;;-143.79;100.00;62634.88;4995357;28;20117;-58
2022/07/05 04:37:38;;;;;;;2.53;1.10;;;;;;;-143.79;100.00;62634.88;4995446;28;20390;-59
2022/07/05 04:40:08;;;;;;;1.00;0.82;;;24.10;59.00;;;-143.79;100.00;62634.88;4995234;28;20552;-59
2022/07/05 04:42:34;;;;;;;1.33;0.98;;;26.60;56.50;;;-143.79;100.00;62634.88;4993933;28;20044;-58
2022/07/05 04:45:00;;;;;;;1.10;0.98;;;23.70;60.00;;;-143.79;100.00;62634.88;4995091;28;20038;-58
2022/07/05 04:47:27;;;;;;;1.83;1.30;;;23.70;73.50;;;-143.79;100.00;62634.88;4995032;28;20038;-58
2022/07/05 04:49:54;;;;;;;1.15;1.05;;;23.70;54.70;;;-143.79;100.00;62634.88;4995235;28;20085;-59
2022/07/05 04:52:20;;;;;;;1.58;1.00;;;23.60;86.60;;;-143.79;100.00;62634.88;4995073;28;20500;-58
2022/07/05 04:54:45;;;;;;;1.10;0.98;;;23.70;86.80;;;-143.79;100.00;62634.88;4994910;28;20050;-59
2022/07/05 04:57:11;;;;;;;1.27;1.17;;;23.70;87.10;;;-143.79;100.00;62634.88;4994908;28;20053;-59
2022/07/05 04:59:37;;;;;;;1.80;0.93;;;23.50;86.80;;;-143.79;100.00;62634.88;4994823;28;20448;-58
2022/07/05 05:02:03;;;;;;;1.38;0.90;;;23.80;87.00;;;-143.79;100.00;62634.88;4994619;28;20170;-59
2022/07/05 05:04:29;;;;;;;0.82;0.82;;;23.80;86.90;;;-143.79;100.00;62634.88;4995024;28;20062;-59
2022/07/05 05:06:54;;;;;;;1.05;0.80;;;23.20;86.80;;;-143.79;100.00;62634.88;4994685;28;20122;-59
2022/07/05 05:09:21;;;;;;;1.05;0.95;;;;;;;-143.79;100.00;62634.88;4994698;28;20034;-58
2022/07/05 05:11:47;;;;;;;1.38;0.70;;;23.70;78.70;;;-143.79;100.00;62634.88;4994638;28;20062;-57
2022/07/05 05:14:13;;;;;;;2.20;1.10;;;23.60;87.10;;;-143.79;100.00;62634.88;4994535;28;20042;-57
2022/07/05 05:16:39;;;;;;;1.08;0.70;;;23.30;86.50;;;-143.79;100.00;62634.88;4994696;28;20030;-57
2022/07/05 05:19:05;;;;;;;3.55;0.88;;;23.80;86.90;;;-143.79;100.00;62634.88;4994724;28;20508;-57
2022/07/05 05:21:30;;;;;;;1.92;0.80;;;23.70;75.40;;;-143.79;100.00;62634.88;4994402;28;20035;-57
2022/07/05 05:23:56;;;;;;;3.55;1.00;;;;;;;-143.79;100.00;62634.88;4994342;28;20492;-57
2022/07/05 05:26:22;;;;;;;3.42;1.25;;;23.70;72.10;;;-143.79;100.00;62634.88;4994003;28;20058;-57
2022/07/05 05:28:48;;;;;;;2.45;1.08;;;;;;;-143.79;100.00;62634.88;4994306;28;20074;-57
2022/07/05 05:31:14;;;;;;;10.40;2.42;;;;;;;-143.79;100.00;62634.88;4994467;28;20031;-57
2022/07/05 05:33:41;;;;;;;9.73;3.75;;;;;;;-143.79;100.00;62634.88;4994076;28;20117;-57
2022/07/05 05:36:07;;;;;;;12.23;3.63;;;24.00;73.60;;;-143.79;100.00;62634.88;4993982;28;20034;-58
2022/07/05 05:38:32;;;;;;;10.95;3.08;;;23.70;87.90;;;-143.79;100.00;62634.88;4993976;28;20096;-57
2022/07/05 05:40:58;;;;;;;11.55;3.53;;;23.80;79.90;;;-143.79;100.00;62634.88;4993941;28;20031;-57
2022/07/05 05:43:24;;;;;;;8.05;2.40;;;;;;;-143.79;100.00;62634.88;4992821;28;20552;-57
2022/07/05 05:45:50;;;;;;;5.88;2.55;;;;;;;-143.79;100.00;62634.88;4994220;28;20425;-58
2022/07/05 05:48:16;;;;;;;10.07;2.08;;;23.70;77.00;;;-143.79;100.00;62634.88;4994093;28;20105;-58
2022/07/05 05:50:42;;;;;;;6.38;1.98;;;23.70;76.80;;;-143.79;100.00;62634.88;4994020;28;20034;-57
2022/07/05 05:53:09;;;;;;;2.75;1.95;;;;;;;-143.79;100.00;62634.88;4993563;28;20500;-57
2022/07/05 05:55:35;;;;;;;6.50;2.00;;;23.90;75.50;;;-143.79;100.00;62634.88;4993596;28;20374;-58
2022/07/05 05:58:13;;;;;;;10.32;2.38;;;24.10;88.00;;;-143.79;100.00;62634.88;4993574;28;20034;-58
2022/07/05 06:00:39;;;;;;;7.53;1.80;;;24.20;85.80;;;-143.79;100.00;62634.88;4993517;28;20057;-58
2022/07/05 06:03:05;;;;;;;7.82;2.30;;;24.10;89.00;;;-143.79;100.00;62634.88;4991962;28;20491;-57
2022/07/05 06:05:31;;;;;;;8.98;2.53;;;;;;;-143.79;100.00;62634.88;4993474;28;20038;-58
2022/07/05 06:07:57;;;;;;;15.68;1.92;;;23.70;78.60;;;-143.79;100.00;62634.88;4993303;28;20045;-57
2022/07/05 06:10:31;;;;;;;7.07;1.77;;;23.90;89.40;;;-143.79;100.00;62634.88;4993429;28;20034;-57
2022/07/05 06:13:08;;;;;;;7.78;1.75;;;24.00;86.10;;;-143.79;100.00;62634.88;4993338;28;20396;-57
2022/07/05 06:15:35;;;;;;;4.00;1.58;;;23.80;56.40;;;-143.79;100.00;62634.88;4993363;28;20125;-57
2022/07/05 06:18:01;;;;;;;7.18;2.35;;;23.90;88.90;;;-143.79;100.00;62634.88;4993200;28;20113;-58
2022/07/05 06:20:35;;;;;;;8.50;2.08;;;24.00;79.60;;;-143.79;100.00;62634.88;4993242;28;20037;-57
2022/07/05 06:23:02;;;;;;;8.85;1.98;;;24.00;88.00;;;-143.79;100.00;62634.88;4993200;28;20034;-58
2022/07/05 06:25:29;;;;;;;4.30;1.40;;;;;;;-143.79;100.00;62634.88;4993178;28;20121;-58
2022/07/05 06:28:07;;;;;;;8.18;1.60;;;23.90;55.60;;;-143.79;100.00;62634.88;4992995;28;20085;-58
2022/07/05 06:30:36;;;;;;;5.47;1.33;;;23.50;88.30;;;-143.79;100.00;62634.88;4993112;28;20485;-58
2022/07/05 06:33:02;;;;;;;5.43;2.10;;;23.80;88.90;;;-143.79;100.00;62634.88;4993202;28;20050;-58
2022/07/05 06:35:28;;;;;;;6.80;1.83;;;;;;;-143.79;100.00;62634.88;4992872;28;20038;-58
2022/07/05 06:38:07;;;;;;;9.13;1.95;;;23.50;64.90;;;-143.79;100.00;62634.88;4992456;28;20053;-58
2022/07/05 06:40:35;;;;;;;5.28;2.00;;;24.20;88.70;;;-143.79;100.00;62634.88;4993091;28;20034;-55
2022/07/05 06:43:04;;;;;;;2.35;1.60;;;23.70;88.30;;;-143.79;100.00;62634.88;4993020;28;20112;-52
2022/07/05 06:45:30;;;;;;;2.97;1.40;;;24.10;84.40;;;-143.79;100.00;62634.88;4993289;28;20038;-54
2022/07/05 06:48:05;;;;;;;5.30;1.50;;;23.90;56.00;;;-143.79;100.00;62634.88;4993122;28;20027;-53
2022/07/05 06:50:37;;;;;;;6.15;1.88;;;24.00;88.60;;;-143.79;100.00;62634.88;4993147;28;20066;-53
2022/07/05 06:53:04;;;;;;;2.83;1.30;;;24.10;88.50;;;-143.79;100.00;62634.88;4975748;28;20503;-55
2022/07/05 06:55:30;;;;;;;3.75;1.20;;;;;;;-143.79;100.00;62634.88;4992827;28;20062;-53
2022/07/05 06:57:58;;;;;;;3.22;1.45;;;24.40;56.50;;;-143.79;100.00;62634.88;4992831;28;20077;-55
2022/07/05 07:00:25;;;;;;;2.35;1.38;;;24.10;65.30;;;-143.79;100.00;62634.88;4993044;28;20060;-53
2022/07/05 07:02:51;;;;;;;4.22;1.60;;;24.00;88.00;;;-143.79;100.00;62634.88;4992573;28;20417;-53
2022/07/05 07:05:16;;;;;;;3.97;1.92;;;23.50;86.70;;;-143.79;100.00;62634.88;4992751;28;20033;-55
2022/07/05 07:10:27;;;;;;;3.85;1.20;;;;;;;-143.79;100.00;62634.88;4992715;28;20111;-54
2022/07/05 07:12:53;;;;;;;2.58;1.13;;;23.90;88.60;;;-143.79;100.00;62634.88;4992698;28;20444;-51
2022/07/05 07:15:19;;;;;;;1.95;1.05;;;24.00;88.90;;;-143.79;100.00;62634.88;4992583;28;20038;-52
2022/07/05 07:17:45;;;;;;;2.00;1.20;;;23.30;88.30;;;-143.79;100.00;62634.88;4992686;28;20035;-52
2022/07/05 07:20:11;;;;;;;2.80;0.93;;;23.80;88.40;;;-143.79;100.00;62634.88;4992659;28;20035;-53
2022/07/05 07:22:37;;;;;;;2.70;1.50;;;24.10;88.90;;;-143.79;100.00;62634.88;4992560;28;20440;-51
2022/07/05 07:25:05;;;;;;;3.05;1.08;;;23.90;75.10;;;-143.79;100.00;62634.88;4992664;28;20031;-52
2022/07/05 07:27:31;;;;;;;3.40;1.02;;;;;;;-143.79;100.00;62634.88;4992462;28;20489;-54
2022/07/05 07:29:57;;;;;;;5.20;1.55;;;;;;;-143.79;100.00;62634.88;4992723;28;20117;-54
2022/07/05 07:32:23;;;;;;;2.05;0.98;;;23.80;88.70;;;-143.79;100.00;62634.88;4992927;28;20485;-52
2022/07/05 07:34:48;;;;;;;2.20;1.10;;;23.90;88.80;;;-143.79;100.00;62634.88;4992444;28;20039;-52
2022/07/05 07:37:14;;;;;;;3.33;1.58;;;23.60;75.40;;;-143.79;100.00;62634.88;4992773;28;20117;-50
2022/07/05 07:39:40;;;;;;;8.43;1.15;;;23.70;55.80;;;-143.79;100.00;62634.88;4992709;28;20041;-52
2022/07/05 07:42:09;;;;;;;3.75;1.33;;;24.10;71.30;;;-143.79;100.00;62634.88;4992353;28;20041;-53
2022/07/05 07:44:35;;;;;;;2.13;1.20;;;23.20;71.70;;;-143.79;100.00;62634.88;4992588;28;20046;-53
2022/07/05 07:47:01;;;;;;;2.25;1.05;;;24.00;89.00;;;-143.79;100.00;62634.88;4992656;28;20031;-54
2022/07/05 07:49:27;;;;;;;4.07;1.13;;;24.10;88.60;;;-143.79;100.00;62634.88;4996045;28;20121;-52
2022/07/05 07:51:52;;;;;;;1.88;1.17;;;24.20;80.00;;;-143.79;100.00;62634.88;4996187;28;20076;-52
2022/07/05 07:54:18;;;;;;;1.75;1.00;;;;;;;-143.79;100.00;62634.88;4996082;28;20114;-52
2022/07/05 07:56:44;;;;;;;1.45;1.10;;;23.80;68.00;;;-143.79;100.00;62634.88;4996050;28;20050;-53
2022/07/05 07:59:11;;;;;;;2.83;1.30;;;24.00;55.70;;;-143.79;100.00;62634.88;4995911;28;20031;-53
2022/07/05 08:01:37;;;;;;;1.73;1.00;;;24.10;88.20;;;-143.79;100.00;62634.88;4995793;28;20042;-54
2022/07/05 08:04:03;;;;;;;1.88;1.30;;;24.20;76.40;;;-143.79;100.00;62634.88;4995765;28;20400;-54
2022/07/05 08:06:29;;;;;;;2.45;0.90;;;23.80;79.60;;;-143.79;100.00;62634.88;4995887;28;20030;-55
2022/07/05 08:08:56;;;;;;;1.83;1.10;;;24.20;88.80;;;-143.79;100.00;62634.88;4995714;28;20041;-52
2022/07/05 08:11:22;;;;;;;1.23;0.88;;;;;;;-143.79;100.00;62634.88;4994477;28;20485;-51
2022/07/05 08:13:48;;;;;;;1.50;0.85;;;;;;;-143.79;100.00;62634.88;4996035;28;20146;-51
2022/07/05 08:16:15;;;;;;;4.60;1.10;;;24.10;55.40;;;-143.79;100.00;62634.88;4995680;28;20474;-54
2022/07/05 08:21:30;;;;;;;2.42;1.17;;;23.80;87.70;;;-143.79;100.00;62634.88;4995881;28;20208;-51
2022/07/05 08:24:17;;;;;;;1.30;0.90;;;24.20;70.00;;;-143.79;100.00;62634.88;4995553;28;20405;-53
2022/07/05 08:26:43;;;;;;;1.27;0.90;;;24.10;88.40;;;-143.79;100.00;62634.88;4995259;28;20046;-52
2022/07/05 08:29:11;;;;;;;2.55;0.80;;;24.00;61.30;;;-143.79;100.00;62634.88;4995386;28;20037;-51
2022/07/05 08:31:47;;;;;;;3.42;0.90;;;24.10;87.40;;;-143.79;100.00;62634.88;4996182;28;20031;-54
2022/07/05 08:34:13;;;;;;;3.63;1.02;;;23.90;87.30;;;-143.79;100.00;62634.88;4996135;28;20034;-51
2022/07/05 08:36:42;;;;;;;3.45;1.00;;;24.10;87.20;;;-143.79;100.00;62634.88;4995465;28;20493;-55
2022/07/05 08:39:08;;;;;;;1.52;0.80;;;;;;;-143.79;100.00;62634.88;4995775;28;20109;-56
2022/07/05 08:41:38;;;;;;;7.07;0.80;;;24.10;56.10;;;-143.79;100.00;62634.88;4995872;28;20034;-55
2022/07/05 08:44:04;;;;;;;2.63;0.77;;;24.50;87.10;;;-143.79;100.00;62634.88;4995320;28;20511;-55
2022/07/05 08:46:31;;;;;;;2.53;1.00;;;24.30;54.80;;;-143.79;100.00;62634.88;4995149;28;20031;-55
2022/07/05 08:49:00;;;;;;;2.58;0.70;;;24.30;86.70;;;-143.79;100.00;62634.88;4995238;28;20030;-56
2022/07/05 08:51:28;;;;;;;0.98;0.77;;;24.70;59.50;;;-143.79;100.00;62634.88;4995561;28;20088;-54
2022/07/05 08:53:55;;;;;;;0.75;0.63;;;24.70;87.30;;;-143.79;100.00;62634.88;4994944;28;20038;-56
2022/07/05 08:56:21;;;;;;;1.23;0.60;;;24.50;86.80;;;-143.79;100.00;62634.88;4994973;28;20030;-55
2022/07/05 08:58:49;;;;;;;2.00;0.80;;;24.40;86.80;;;-143.79;100.00;62634.88;4994777;28;20042;-56
2022/07/05 09:01:15;;;;;;;1.33;0.98;;;24.70;86.60;;;-143.79;100.00;62634.88;4994687;28;20026;-56
2022/07/05 09:03:47;;;;;;;0.82;0.70;;;24.70;54.50;;;-143.79;100.00;62634.88;4994717;28;20046;-55
2022/07/05 09:06:22;;;;;;;3.33;0.80;;;24.80;54.70;;;-143.79;100.00;62634.88;4977309;28;20041;-55
2022/07/05 09:08:51;;;;;;;0.60;0.57;;;25.10;87.20;;;-143.79;100.00;62634.88;4995160;28;20106;-56
2022/07/05 09:11:17;;;;;;;1.17;0.60;;;;;;;-143.79;100.00;62634.88;4977432;28;20030;-55
2022/07/05 09:13:49;;;;;;;1.05;0.63;;;25.00;85.50;;;-143.79;100.00;62634.88;4993666;28;20485;-56
2022/07/05 09:16:16;;;;;;;3.25;0.65;;;25.00;79.10;;;-143.79;100.00;62634.88;4994876;28;20375;-56
2022/07/05 09:18:56;;;;;;;2.03;0.70;;;25.10;85.90;;;-143.79;100.00;62634.88;4994986;28;20027;-55
2022/07/05 09:21:23;;;;;;;1.02;0.85;;;25.10;85.90;;;-143.79;100.00;62634.88;4995034;28;20073;-56
2022/07/05 09:23:56;;;;;;;2.20;0.50;;;25.00;85.90;;;-143.79;100.00;62634.88;4993441;28;20504;-56
2022/07/05 09:26:44;;;;;;;2.10;0.55;;;24.40;57.10;;;-143.79;100.00;62634.88;4994993;28;20461;-54
2022/07/05 09:29:13;;;;;;;0.65;0.50;;;25.20;86.00;;;-143.79;100.00;62634.88;4995504;28;20189;-55
2022/07/05 09:31:42;;;;;;;0.68;0.60;;;25.40;86.10;;;-143.79;100.00;62634.88;4994249;28;20027;-55
2022/07/05 09:34:12;;;;;;;0.80;0.60;;;25.50;86.20;;;-143.79;100.00;62634.88;4994505;28;20046;-56
2022/07/05 09:36:50;;;;;;;4.78;0.70;;;25.10;53.80;;;-143.79;100.00;62634.88;4994969;28;20432;-56
2022/07/05 09:39:37;;;;;;;0.50;0.50;;;25.20;54.00;;;-143.79;100.00;62634.88;4994331;28;20046;-54
2022/07/05 09:42:18;;;;;;;1.25;0.50;;;25.20;53.70;;;-143.79;100.00;62634.88;4994256;28;20093;-55
2022/07/05 09:44:52;;;;;;;1.92;0.60;;;24.70;85.10;;;-143.79;100.00;62634.88;4994411;28;20101;-55
2022/07/05 09:47:21;;;;;;;1.42;0.60;;;25.10;85.40;;;-143.79;100.00;62634.88;4994517;28;20062;-56
2022/07/05 09:50:04;;;;;;;3.08;0.57;;;24.90;85.10;;;-143.79;100.00;62634.88;4993823;28;20046;-55
2022/07/05 09:52:34;;;;;;;1.08;0.50;;;;;;;-143.79;100.00;62634.88;4994264;28;20031;-54
2022/07/05 09:55:16;;;;;;;1.85;0.70;;;25.50;85.90;;;-143.79;100.00;62634.88;4992738;28;20444;-54
2022/07/05 09:57:43;;;;;;;1.45;0.70;;;25.50;84.60;;;-143.79;100.00;62634.88;4992828;28;20038;-56
2022/07/05 10:00:15;;;;;;;1.77;0.70;;;25.60;85.30;;;-143.79;100.00;62634.88;4993818;28;20058;-56
2022/07/05 10:02:45;;;;;;;1.10;0.60;;;25.50;85.50;;;-143.79;100.00;62634.88;4994283;28;20046;-56
2022/07/05 10:05:24;;;;;;;0.45;0.35;;;25.60;85.50;;;-143.79;100.00;62634.88;4994601;28;20092;-54
2022/07/05 10:07:55;;;;;;;0.95;0.50;;;25.50;85.50;;;-143.79;100.00;62634.88;4993651;28;20061;-55
2022/07/05 10:10:27;;;;;;;1.02;0.60;;;25.50;85.20;;;-143.79;100.00;62634.88;4993474;28;20034;-56
2022/07/05 10:12:59;;;;;;;0.40;0.40;;;25.30;85.20;;;-143.79;100.00;62634.88;4992921;28;20037;-56
2022/07/05 10:15:30;;;;;;;1.33;0.60;;;25.60;85.00;;;-143.79;100.00;62634.88;4992671;28;20093;-55
2022/07/05 10:18:04;;;;;;;5.07;0.50;;;25.60;65.20;;;-143.79;100.00;62634.88;4994178;28;20034;-55
2022/07/05 10:20:45;;;;;;;0.77;0.40;;;25.80;85.40;;;-143.79;100.00;62634.88;4993470;28;20130;-56
2022/07/05 10:23:14;;;;;;;0.98;0.50;;;25.20;85.00;;;-143.79;100.00;62634.88;4994568;28;20042;-55